Hovedside
METAR-TAF:

METAR-TAF

Lufthavner :

Tsjita, Russland

breddegrad: 52-05N, lengdegrad: 113-29E, høyde over havet: 685 m

Gjeldene værobservasjon

Denne rapporten ble laget for 33 minutter siden, klokken 17:00 UTC
Vind 4 kt fra Nord
Temperatur 14°C
Luftfuktighet 88%
Trykk 1008 hPa
Sikt 10 km eller mer

METAR: UIAA 231700Z AUTO 36002MPS 9999 NCD 14/12 Q1008 RMK QFE698/0930

Tid: 02:33 (17:33 UTC)

Varsel

Denne rapporten ble laget for 3 timer og 33 minutter siden, klokken 14:00 UTC
Varsel gyldig fra 23. klokken 15 UTC til 24. klokken 15 UTC
Vind 6 kt fra Vest-nordvest
Sikt 10 km eller mer

TAF: UIAA 231400Z 2315/2415 30003MPS 9999 NSC

Værobservasjoner og værvarsel for over 4000 flyplasser (METAR- og TAF-rapporter).

Tilgjengelige stasjoner er representert av de røde og gule prikkene på kartet.

Hold musepekeren over prikken for å se navnet på stasjonen.

Klikk så for å se værobservasjoner og -varsler.

For å forandre kartet kan du klikke på den grønne knappen med svart kryss for å zoome inn, på den grønne knappen med strek for å zoome ut, eller på de grønne pilene for å se tilstøtende kart.


METAR-TAF: